Leesburg, Florida
Current Conditions -  °F | °C
As of 5:53 PM on Sunday 21 Dec 2014 (Local Time) from KLEE Reporting Station
Light Rain Light Rain  
Wind Chill: 19°   Ceiling: 12000
Heat Index: 19°   Visibility: 9mi
Dew Point: 18°   Wind: 3mph
Humidity: 93%   Direction: 110°ESE
Pressure: 30.03"   Gusts: NA
Location:  28.81°N, 81.88°W
Report Text: KLEE 212253Z 11003KT 9SM -RA FEW095 BKN120 19/18 A3003 RMK AO2 LTG DSNT S SLP168 P0008 T01940183
Loading
Personal Weather Stations






























Interactive Weather Map New forecast layout! Learn more

10-Day Weather Forecast

Advertisements
Track Severe Weather on mobile